sensor_id;sensor_type;location;lat;lon;timestamp;temperature;humidity
21722;DHT22;11023;48.274;7.794;2023-11-21T00:02:20;10.60;99.90
21722;DHT22;11023;48.274;7.794;2023-11-21T00:04:47;10.50;99.90
21722;DHT22;11023;48.274;7.794;2023-11-21T00:07:13;10.50;99.90
21722;DHT22;11023;48.274;7.794;2023-11-21T00:09:40;10.50;99.90
21722;DHT22;11023;48.274;7.794;2023-11-21T00:12:10;10.50;99.90
21722;DHT22;11023;48.274;7.794;2023-11-21T00:14:55;10.50;99.90
21722;DHT22;11023;48.274;7.794;2023-11-21T00:17:21;10.50;99.90
21722;DHT22;11023;48.274;7.794;2023-11-21T00:19:47;10.40;99.90
21722;DHT22;11023;48.274;7.794;2023-11-21T00:22:12;10.40;99.90
21722;DHT22;11023;48.274;7.794;2023-11-21T00:24:38;10.40;99.90
21722;DHT22;11023;48.274;7.794;2023-11-21T00:27:04;10.50;99.90
21722;DHT22;11023;48.274;7.794;2023-11-21T00:29:30;10.40;99.90
21722;DHT22;11023;48.274;7.794;2023-11-21T00:31:56;10.40;99.90
21722;DHT22;11023;48.274;7.794;2023-11-21T00:34:21;10.40;99.90
21722;DHT22;11023;48.274;7.794;2023-11-21T00:36:47;10.40;99.90
21722;DHT22;11023;48.274;7.794;2023-11-21T00:39:13;10.40;99.90
21722;DHT22;11023;48.274;7.794;2023-11-21T00:41:39;10.40;99.90
21722;DHT22;11023;48.274;7.794;2023-11-21T00:44:04;10.40;99.90
21722;DHT22;11023;48.274;7.794;2023-11-21T00:46:32;10.40;99.90
21722;DHT22;11023;48.274;7.794;2023-11-21T00:48:58;10.40;99.90
21722;DHT22;11023;48.274;7.794;2023-11-21T00:51:23;10.30;99.90
21722;DHT22;11023;48.274;7.794;2023-11-21T00:53:50;10.30;99.90
21722;DHT22;11023;48.274;7.794;2023-11-21T00:56:16;10.30;99.90
21722;DHT22;11023;48.274;7.794;2023-11-21T00:58:42;10.30;99.90
21722;DHT22;11023;48.274;7.794;2023-11-21T01:01:15;10.30;99.90
21722;DHT22;11023;48.274;7.794;2023-11-21T01:03:41;10.30;99.90
21722;DHT22;11023;48.274;7.794;2023-11-21T01:06:09;10.30;99.90
21722;DHT22;11023;48.274;7.794;2023-11-21T01:08:34;10.30;99.90
21722;DHT22;11023;48.274;7.794;2023-11-21T01:11:01;10.30;99.90
21722;DHT22;11023;48.274;7.794;2023-11-21T01:13:27;10.30;99.90
21722;DHT22;11023;48.274;7.794;2023-11-21T01:15:54;10.30;99.90
21722;DHT22;11023;48.274;7.794;2023-11-21T01:18:21;10.30;99.90
21722;DHT22;11023;48.274;7.794;2023-11-21T01:20:46;10.30;99.90
21722;DHT22;11023;48.274;7.794;2023-11-21T01:23:13;10.30;99.90
21722;DHT22;11023;48.274;7.794;2023-11-21T01:25:39;10.40;99.90
21722;DHT22;11023;48.274;7.794;2023-11-21T01:28:06;10.30;99.90
21722;DHT22;11023;48.274;7.794;2023-11-21T01:30:32;10.30;99.90
21722;DHT22;11023;48.274;7.794;2023-11-21T01:33:00;10.30;99.90
21722;DHT22;11023;48.274;7.794;2023-11-21T01:35:25;10.30;99.90
21722;DHT22;11023;48.274;7.794;2023-11-21T01:37:51;10.30;99.90
21722;DHT22;11023;48.274;7.794;2023-11-21T01:40:16;10.30;99.90
21722;DHT22;11023;48.274;7.794;2023-11-21T01:42:43;10.20;99.90
21722;DHT22;11023;48.274;7.794;2023-11-21T01:45:10;10.20;99.90
21722;DHT22;11023;48.274;7.794;2023-11-21T01:47:38;10.20;99.90
21722;DHT22;11023;48.274;7.794;2023-11-21T01:50:09;10.10;99.90
21722;DHT22;11023;48.274;7.794;2023-11-21T01:52:38;10.10;99.90
21722;DHT22;11023;48.274;7.794;2023-11-21T01:55:08;10.00;99.90
21722;DHT22;11023;48.274;7.794;2023-11-21T01:57:35;9.90;99.90
21722;DHT22;11023;48.274;7.794;2023-11-21T02:00:03;9.80;99.90
21722;DHT22;11023;48.274;7.794;2023-11-21T02:02:47;9.80;99.90
21722;DHT22;11023;48.274;7.794;2023-11-21T02:05:18;9.80;99.90
21722;DHT22;11023;48.274;7.794;2023-11-21T02:07:44;9.80;99.90
21722;DHT22;11023;48.274;7.794;2023-11-21T02:10:14;9.70;99.90
21722;DHT22;11023;48.274;7.794;2023-11-21T02:12:43;9.80;99.90
21722;DHT22;11023;48.274;7.794;2023-11-21T02:15:13;9.80;99.90
21722;DHT22;11023;48.274;7.794;2023-11-21T02:17:47;9.80;99.90
21722;DHT22;11023;48.274;7.794;2023-11-21T02:20:17;9.70;99.90
21722;DHT22;11023;48.274;7.794;2023-11-21T02:25:30;9.80;99.90
21722;DHT22;11023;48.274;7.794;2023-11-21T02:27:59;9.80;99.90
21722;DHT22;11023;48.274;7.794;2023-11-21T02:30:25;9.80;99.90
21722;DHT22;11023;48.274;7.794;2023-11-21T02:32:51;9.80;99.90
21722;DHT22;11023;48.274;7.794;2023-11-21T02:35:23;9.80;99.90
21722;DHT22;11023;48.274;7.794;2023-11-21T02:37:51;9.80;99.90
21722;DHT22;11023;48.274;7.794;2023-11-21T02:40:17;9.80;99.90
21722;DHT22;11023;48.274;7.794;2023-11-21T02:42:44;9.80;99.90
21722;DHT22;11023;48.274;7.794;2023-11-21T02:45:12;9.80;99.90
21722;DHT22;11023;48.274;7.794;2023-11-21T02:47:43;9.80;99.90
21722;DHT22;11023;48.274;7.794;2023-11-21T02:50:09;9.80;99.90
21722;DHT22;11023;48.274;7.794;2023-11-21T02:52:36;9.80;99.90
21722;DHT22;11023;48.274;7.794;2023-11-21T02:55:02;9.90;99.90
21722;DHT22;11023;48.274;7.794;2023-11-21T02:57:28;9.80;99.90
21722;DHT22;11023;48.274;7.794;2023-11-21T02:59:54;9.80;99.90
21722;DHT22;11023;48.274;7.794;2023-11-21T03:02:21;9.80;99.90
21722;DHT22;11023;48.274;7.794;2023-11-21T03:04:47;9.80;99.90
21722;DHT22;11023;48.274;7.794;2023-11-21T03:07:17;9.90;99.90
21722;DHT22;11023;48.274;7.794;2023-11-21T03:09:45;9.90;99.90
21722;DHT22;11023;48.274;7.794;2023-11-21T03:12:12;9.90;99.90
21722;DHT22;11023;48.274;7.794;2023-11-21T03:14:39;9.80;99.90
21722;DHT22;11023;48.274;7.794;2023-11-21T03:17:05;9.80;99.90
21722;DHT22;11023;48.274;7.794;2023-11-21T03:19:33;9.80;99.90
21722;DHT22;11023;48.274;7.794;2023-11-21T03:21:59;9.80;99.90
21722;DHT22;11023;48.274;7.794;2023-11-21T03:24:25;9.80;99.90
21722;DHT22;11023;48.274;7.794;2023-11-21T03:26:52;9.80;99.90
21722;DHT22;11023;48.274;7.794;2023-11-21T03:29:19;9.80;99.90
21722;DHT22;11023;48.274;7.794;2023-11-21T03:31:45;9.80;99.90
21722;DHT22;11023;48.274;7.794;2023-11-21T03:34:27;9.80;99.90
21722;DHT22;11023;48.274;7.794;2023-11-21T03:36:53;9.80;99.90
21722;DHT22;11023;48.274;7.794;2023-11-21T03:39:20;9.80;99.90
21722;DHT22;11023;48.274;7.794;2023-11-21T03:41:46;9.80;99.90
21722;DHT22;11023;48.274;7.794;2023-11-21T03:44:13;9.80;99.90
21722;DHT22;11023;48.274;7.794;2023-11-21T03:46:39;9.90;99.90
21722;DHT22;11023;48.274;7.794;2023-11-21T03:49:05;9.80;99.90
21722;DHT22;11023;48.274;7.794;2023-11-21T03:51:30;9.80;99.90
21722;DHT22;11023;48.274;7.794;2023-11-21T03:53:56;9.80;99.90
21722;DHT22;11023;48.274;7.794;2023-11-21T03:56:22;9.80;99.90
21722;DHT22;11023;48.274;7.794;2023-11-21T03:58:48;9.80;99.90
21722;DHT22;11023;48.274;7.794;2023-11-21T04:01:22;9.80;99.90
21722;DHT22;11023;48.274;7.794;2023-11-21T04:03:50;9.80;99.90
21722;DHT22;11023;48.274;7.794;2023-11-21T04:06:19;9.70;99.90
21722;DHT22;11023;48.274;7.794;2023-11-21T04:08:46;9.70;99.90
21722;DHT22;11023;48.274;7.794;2023-11-21T04:11:12;9.70;99.90
21722;DHT22;11023;48.274;7.794;2023-11-21T04:13:39;9.70;99.90
21722;DHT22;11023;48.274;7.794;2023-11-21T04:16:07;9.70;99.90
21722;DHT22;11023;48.274;7.794;2023-11-21T04:18:34;9.70;99.90
21722;DHT22;11023;48.274;7.794;2023-11-21T04:21:00;9.70;99.90
21722;DHT22;11023;48.274;7.794;2023-11-21T04:23:28;9.70;99.90
21722;DHT22;11023;48.274;7.794;2023-11-21T04:25:53;9.70;99.90
21722;DHT22;11023;48.274;7.794;2023-11-21T04:28:25;9.70;99.90
21722;DHT22;11023;48.274;7.794;2023-11-21T04:30:51;9.70;99.90
21722;DHT22;11023;48.274;7.794;2023-11-21T04:33:19;9.60;99.90
21722;DHT22;11023;48.274;7.794;2023-11-21T04:35:44;9.60;99.90
21722;DHT22;11023;48.274;7.794;2023-11-21T04:38:10;9.60;99.90
21722;DHT22;11023;48.274;7.794;2023-11-21T04:40:36;9.60;99.90
21722;DHT22;11023;48.274;7.794;2023-11-21T04:43:02;9.60;99.90
21722;DHT22;11023;48.274;7.794;2023-11-21T04:45:29;9.60;99.90
21722;DHT22;11023;48.274;7.794;2023-11-21T04:47:55;9.60;99.90
21722;DHT22;11023;48.274;7.794;2023-11-21T04:50:21;9.50;99.90
21722;DHT22;11023;48.274;7.794;2023-11-21T04:52:47;9.60;99.90
21722;DHT22;11023;48.274;7.794;2023-11-21T04:55:13;9.60;99.90
21722;DHT22;11023;48.274;7.794;2023-11-21T04:57:39;9.60;99.90
21722;DHT22;11023;48.274;7.794;2023-11-21T05:00:08;9.60;99.90
21722;DHT22;11023;48.274;7.794;2023-11-21T05:02:34;9.50;99.90
21722;DHT22;11023;48.274;7.794;2023-11-21T05:05:01;9.60;99.90
21722;DHT22;11023;48.274;7.794;2023-11-21T05:07:26;9.60;99.90
21722;DHT22;11023;48.274;7.794;2023-11-21T05:09:55;9.60;99.90
21722;DHT22;11023;48.274;7.794;2023-11-21T05:12:25;9.50;99.90
21722;DHT22;11023;48.274;7.794;2023-11-21T05:14:51;9.50;99.90
21722;DHT22;11023;48.274;7.794;2023-11-21T05:17:17;9.50;99.90
21722;DHT22;11023;48.274;7.794;2023-11-21T05:19:42;9.50;99.90
21722;DHT22;11023;48.274;7.794;2023-11-21T05:22:11;9.50;99.90
21722;DHT22;11023;48.274;7.794;2023-11-21T05:24:37;9.40;99.90
21722;DHT22;11023;48.274;7.794;2023-11-21T05:27:04;9.40;99.90
21722;DHT22;11023;48.274;7.794;2023-11-21T05:29:30;9.40;99.90
21722;DHT22;11023;48.274;7.794;2023-11-21T05:31:56;9.40;99.90
21722;DHT22;11023;48.274;7.794;2023-11-21T05:34:22;9.40;99.90
21722;DHT22;11023;48.274;7.794;2023-11-21T05:36:50;9.40;99.90
21722;DHT22;11023;48.274;7.794;2023-11-21T05:39:15;9.40;99.90
21722;DHT22;11023;48.274;7.794;2023-11-21T05:41:43;9.40;99.90
21722;DHT22;11023;48.274;7.794;2023-11-21T05:44:08;9.40;99.90
21722;DHT22;11023;48.274;7.794;2023-11-21T05:46:34;9.40;99.90
21722;DHT22;11023;48.274;7.794;2023-11-21T05:49:00;9.40;99.90
21722;DHT22;11023;48.274;7.794;2023-11-21T05:51:26;9.40;99.90
21722;DHT22;11023;48.274;7.794;2023-11-21T05:53:52;9.50;99.90
21722;DHT22;11023;48.274;7.794;2023-11-21T05:56:18;9.40;99.90
21722;DHT22;11023;48.274;7.794;2023-11-21T05:58:43;9.40;99.90
21722;DHT22;11023;48.274;7.794;2023-11-21T06:01:09;9.40;99.90
21722;DHT22;11023;48.274;7.794;2023-11-21T06:03:38;9.40;99.90
21722;DHT22;11023;48.274;7.794;2023-11-21T06:06:04;9.40;99.90
21722;DHT22;11023;48.274;7.794;2023-11-21T06:08:30;9.40;99.90
21722;DHT22;11023;48.274;7.794;2023-11-21T06:10:56;9.40;99.90
21722;DHT22;11023;48.274;7.794;2023-11-21T06:13:21;9.40;99.90
21722;DHT22;11023;48.274;7.794;2023-11-21T06:15:50;9.40;99.90
21722;DHT22;11023;48.274;7.794;2023-11-21T06:18:16;9.40;99.90
21722;DHT22;11023;48.274;7.794;2023-11-21T06:20:45;9.40;99.90
21722;DHT22;11023;48.274;7.794;2023-11-21T06:23:11;9.40;99.90
21722;DHT22;11023;48.274;7.794;2023-11-21T06:25:37;9.40;99.90
21722;DHT22;11023;48.274;7.794;2023-11-21T06:28:03;9.40;99.90
21722;DHT22;11023;48.274;7.794;2023-11-21T06:30:29;9.40;99.90
21722;DHT22;11023;48.274;7.794;2023-11-21T06:32:54;9.40;99.90
21722;DHT22;11023;48.274;7.794;2023-11-21T06:35:21;9.40;99.90
21722;DHT22;11023;48.274;7.794;2023-11-21T06:37:47;9.50;99.90
21722;DHT22;11023;48.274;7.794;2023-11-21T06:40:13;9.50;99.90
21722;DHT22;11023;48.274;7.794;2023-11-21T06:42:43;9.50;99.90
21722;DHT22;11023;48.274;7.794;2023-11-21T06:45:10;9.50;99.90
21722;DHT22;11023;48.274;7.794;2023-11-21T06:47:36;9.50;99.90
21722;DHT22;11023;48.274;7.794;2023-11-21T06:50:03;9.50;99.90
21722;DHT22;11023;48.274;7.794;2023-11-21T06:52:29;9.50;99.90
21722;DHT22;11023;48.274;7.794;2023-11-21T06:54:55;9.50;99.90
21722;DHT22;11023;48.274;7.794;2023-11-21T06:57:23;9.50;99.90
21722;DHT22;11023;48.274;7.794;2023-11-21T06:59:48;9.50;99.90
21722;DHT22;11023;48.274;7.794;2023-11-21T07:02:16;9.50;99.90
21722;DHT22;11023;48.274;7.794;2023-11-21T07:04:44;9.50;99.90
21722;DHT22;11023;48.274;7.794;2023-11-21T07:07:11;9.50;99.90
21722;DHT22;11023;48.274;7.794;2023-11-21T07:09:37;9.50;99.90
21722;DHT22;11023;48.274;7.794;2023-11-21T07:12:04;9.50;99.90
21722;DHT22;11023;48.274;7.794;2023-11-21T07:14:35;9.50;99.90
21722;DHT22;11023;48.274;7.794;2023-11-21T07:17:01;9.50;99.90
21722;DHT22;11023;48.274;7.794;2023-11-21T07:19:26;9.50;99.90
21722;DHT22;11023;48.274;7.794;2023-11-21T07:21:52;9.50;99.90
21722;DHT22;11023;48.274;7.794;2023-11-21T07:24:18;9.50;99.90
21722;DHT22;11023;48.274;7.794;2023-11-21T07:26:44;9.50;99.90
21722;DHT22;11023;48.274;7.794;2023-11-21T07:29:09;9.50;99.90
21722;DHT22;11023;48.274;7.794;2023-11-21T07:31:37;9.50;99.90
21722;DHT22;11023;48.274;7.794;2023-11-21T07:34:03;9.50;99.90
21722;DHT22;11023;48.274;7.794;2023-11-21T07:36:29;9.50;99.90
21722;DHT22;11023;48.274;7.794;2023-11-21T07:38:55;9.60;99.90
21722;DHT22;11023;48.274;7.794;2023-11-21T07:41:20;9.60;99.90
21722;DHT22;11023;48.274;7.794;2023-11-21T07:43:46;9.60;99.90
21722;DHT22;11023;48.274;7.794;2023-11-21T07:46:13;9.60;99.90
21722;DHT22;11023;48.274;7.794;2023-11-21T07:48:40;9.60;99.90
21722;DHT22;11023;48.274;7.794;2023-11-21T07:51:06;9.60;99.90
21722;DHT22;11023;48.274;7.794;2023-11-21T07:53:32;9.60;99.90
21722;DHT22;11023;48.274;7.794;2023-11-21T07:56:00;9.60;99.90
21722;DHT22;11023;48.274;7.794;2023-11-21T07:58:27;9.60;99.90
21722;DHT22;11023;48.274;7.794;2023-11-21T08:00:53;9.60;99.90
21722;DHT22;11023;48.274;7.794;2023-11-21T08:03:19;9.60;99.90
21722;DHT22;11023;48.274;7.794;2023-11-21T08:05:45;9.60;99.90
21722;DHT22;11023;48.274;7.794;2023-11-21T08:08:10;9.60;99.90
21722;DHT22;11023;48.274;7.794;2023-11-21T08:10:36;9.60;99.90
21722;DHT22;11023;48.274;7.794;2023-11-21T08:13:03;9.60;99.90
21722;DHT22;11023;48.274;7.794;2023-11-21T08:15:29;9.70;99.90
21722;DHT22;11023;48.274;7.794;2023-11-21T08:17:55;9.70;99.90
21722;DHT22;11023;48.274;7.794;2023-11-21T08:20:20;9.70;99.90
21722;DHT22;11023;48.274;7.794;2023-11-21T08:22:48;9.70;99.90
21722;DHT22;11023;48.274;7.794;2023-11-21T08:25:13;9.80;99.90
21722;DHT22;11023;48.274;7.794;2023-11-21T08:27:39;9.80;99.90
21722;DHT22;11023;48.274;7.794;2023-11-21T08:30:05;9.80;99.90
21722;DHT22;11023;48.274;7.794;2023-11-21T08:32:32;9.80;99.90
21722;DHT22;11023;48.274;7.794;2023-11-21T08:35:01;9.80;99.90
21722;DHT22;11023;48.274;7.794;2023-11-21T08:37:27;9.70;99.90
21722;DHT22;11023;48.274;7.794;2023-11-21T08:39:57;9.80;99.90
21722;DHT22;11023;48.274;7.794;2023-11-21T08:42:24;9.80;99.90
21722;DHT22;11023;48.274;7.794;2023-11-21T08:44:50;9.90;99.90
21722;DHT22;11023;48.274;7.794;2023-11-21T08:47:16;9.90;99.90
21722;DHT22;11023;48.274;7.794;2023-11-21T08:49:42;9.90;99.90
21722;DHT22;11023;48.274;7.794;2023-11-21T08:52:08;9.90;99.90
21722;DHT22;11023;48.274;7.794;2023-11-21T08:54:34;9.90;99.90
21722;DHT22;11023;48.274;7.794;2023-11-21T08:56:59;9.90;99.90
21722;DHT22;11023;48.274;7.794;2023-11-21T08:59:26;9.80;99.90
21722;DHT22;11023;48.274;7.794;2023-11-21T09:01:52;9.80;99.90
21722;DHT22;11023;48.274;7.794;2023-11-21T09:04:17;9.80;99.90
21722;DHT22;11023;48.274;7.794;2023-11-21T09:06:43;9.80;99.90
21722;DHT22;11023;48.274;7.794;2023-11-21T09:09:09;9.80;99.90
21722;DHT22;11023;48.274;7.794;2023-11-21T09:11:36;9.80;99.90
21722;DHT22;11023;48.274;7.794;2023-11-21T09:14:02;9.80;99.90
21722;DHT22;11023;48.274;7.794;2023-11-21T09:16:31;9.80;99.90
21722;DHT22;11023;48.274;7.794;2023-11-21T09:18:58;9.80;99.90
21722;DHT22;11023;48.274;7.794;2023-11-21T09:21:24;9.90;99.90
21722;DHT22;11023;48.274;7.794;2023-11-21T09:23:51;9.90;99.90
21722;DHT22;11023;48.274;7.794;2023-11-21T09:26:16;9.90;99.90
21722;DHT22;11023;48.274;7.794;2023-11-21T09:28:44;10.00;99.90
21722;DHT22;11023;48.274;7.794;2023-11-21T09:31:13;10.00;99.90
21722;DHT22;11023;48.274;7.794;2023-11-21T09:33:43;10.00;99.90
21722;DHT22;11023;48.274;7.794;2023-11-21T09:36:12;10.10;99.90
21722;DHT22;11023;48.274;7.794;2023-11-21T09:38:41;10.10;99.90
21722;DHT22;11023;48.274;7.794;2023-11-21T09:41:15;10.20;99.90
21722;DHT22;11023;48.274;7.794;2023-11-21T09:43:44;10.20;99.90
21722;DHT22;11023;48.274;7.794;2023-11-21T09:46:12;10.20;99.90
21722;DHT22;11023;48.274;7.794;2023-11-21T09:48:50;10.20;99.90
21722;DHT22;11023;48.274;7.794;2023-11-21T09:51:19;10.10;99.90
21722;DHT22;11023;48.274;7.794;2023-11-21T09:53:49;10.10;99.90
21722;DHT22;11023;48.274;7.794;2023-11-21T09:56:17;10.00;99.90
21722;DHT22;11023;48.274;7.794;2023-11-21T09:58:51;10.00;99.90
21722;DHT22;11023;48.274;7.794;2023-11-21T10:01:18;10.00;99.90
21722;DHT22;11023;48.274;7.794;2023-11-21T10:03:44;10.00;99.90
21722;DHT22;11023;48.274;7.794;2023-11-21T10:06:10;10.00;99.90
21722;DHT22;11023;48.274;7.794;2023-11-21T10:08:40;10.00;99.90
21722;DHT22;11023;48.274;7.794;2023-11-21T10:11:07;10.00;99.90
21722;DHT22;11023;48.274;7.794;2023-11-21T10:13:37;10.00;99.90
21722;DHT22;11023;48.274;7.794;2023-11-21T10:16:05;10.00;99.90
21722;DHT22;11023;48.274;7.794;2023-11-21T10:18:33;10.00;99.90
21722;DHT22;11023;48.274;7.794;2023-11-21T10:21:00;10.00;99.90
21722;DHT22;11023;48.274;7.794;2023-11-21T10:23:26;10.00;99.90
21722;DHT22;11023;48.274;7.794;2023-11-21T10:25:52;10.00;99.90
21722;DHT22;11023;48.274;7.794;2023-11-21T10:28:18;10.00;99.90
21722;DHT22;11023;48.274;7.794;2023-11-21T10:30:49;10.00;99.90
21722;DHT22;11023;48.274;7.794;2023-11-21T10:33:16;10.00;99.90
21722;DHT22;11023;48.274;7.794;2023-11-21T10:35:45;10.00;99.90
21722;DHT22;11023;48.274;7.794;2023-11-21T10:38:17;10.10;99.90
21722;DHT22;11023;48.274;7.794;2023-11-21T10:40:44;10.10;99.90
21722;DHT22;11023;48.274;7.794;2023-11-21T10:43:10;10.10;99.90
21722;DHT22;11023;48.274;7.794;2023-11-21T10:45:40;10.10;99.90
21722;DHT22;11023;48.274;7.794;2023-11-21T10:48:10;10.10;99.90
21722;DHT22;11023;48.274;7.794;2023-11-21T10:50:37;10.20;99.90
21722;DHT22;11023;48.274;7.794;2023-11-21T10:53:04;10.10;99.90
21722;DHT22;11023;48.274;7.794;2023-11-21T10:55:30;10.20;99.90
21722;DHT22;11023;48.274;7.794;2023-11-21T10:57:59;10.10;99.90
21722;DHT22;11023;48.274;7.794;2023-11-21T11:00:27;10.10;99.90
21722;DHT22;11023;48.274;7.794;2023-11-21T11:02:53;10.10;99.90
21722;DHT22;11023;48.274;7.794;2023-11-21T11:05:23;10.10;99.90
21722;DHT22;11023;48.274;7.794;2023-11-21T11:08:00;10.20;99.90
21722;DHT22;11023;48.274;7.794;2023-11-21T11:10:28;10.20;99.90
21722;DHT22;11023;48.274;7.794;2023-11-21T11:12:55;10.20;99.90
21722;DHT22;11023;48.274;7.794;2023-11-21T11:15:23;10.30;99.90
21722;DHT22;11023;48.274;7.794;2023-11-21T11:17:49;10.30;99.90
21722;DHT22;11023;48.274;7.794;2023-11-21T11:20:17;10.30;99.90
21722;DHT22;11023;48.274;7.794;2023-11-21T11:25:35;10.30;99.90
21722;DHT22;11023;48.274;7.794;2023-11-21T11:28:17;10.20;99.90
21722;DHT22;11023;48.274;7.794;2023-11-21T11:33:56;10.30;99.90
21722;DHT22;11023;48.274;7.794;2023-11-21T11:36:31;10.30;99.90
21722;DHT22;11023;48.274;7.794;2023-11-21T11:38:59;10.30;99.90
21722;DHT22;11023;48.274;7.794;2023-11-21T11:41:30;10.20;99.90
21722;DHT22;11023;48.274;7.794;2023-11-21T11:44:02;10.20;99.90
21722;DHT22;11023;48.274;7.794;2023-11-21T11:46:43;10.20;99.90
21722;DHT22;11023;48.274;7.794;2023-11-21T11:49:10;10.20;99.90
21722;DHT22;11023;48.274;7.794;2023-11-21T11:51:48;10.20;99.90
21722;DHT22;11023;48.274;7.794;2023-11-21T11:54:14;10.20;99.90
21722;DHT22;11023;48.274;7.794;2023-11-21T11:56:39;10.20;99.90
21722;DHT22;11023;48.274;7.794;2023-11-21T11:59:05;10.20;99.90
21722;DHT22;11023;48.274;7.794;2023-11-21T12:01:35;10.10;99.90
21722;DHT22;11023;48.274;7.794;2023-11-21T12:07:00;10.00;99.90
21722;DHT22;11023;48.274;7.794;2023-11-21T12:09:28;9.90;99.90
21722;DHT22;11023;48.274;7.794;2023-11-21T12:11:56;9.90;99.90
21722;DHT22;11023;48.274;7.794;2023-11-21T12:14:25;9.90;99.90
21722;DHT22;11023;48.274;7.794;2023-11-21T12:16:51;9.80;99.90
21722;DHT22;11023;48.274;7.794;2023-11-21T12:19:17;9.80;99.90
21722;DHT22;11023;48.274;7.794;2023-11-21T12:21:43;9.80;99.90
21722;DHT22;11023;48.274;7.794;2023-11-21T12:24:14;9.70;99.90
21722;DHT22;11023;48.274;7.794;2023-11-21T12:26:40;9.80;99.90
21722;DHT22;11023;48.274;7.794;2023-11-21T12:29:06;9.90;99.90
21722;DHT22;11023;48.274;7.794;2023-11-21T12:31:34;9.90;99.90
21722;DHT22;11023;48.274;7.794;2023-11-21T12:34:00;9.90;99.90
21722;DHT22;11023;48.274;7.794;2023-11-21T12:36:26;9.90;99.90
21722;DHT22;11023;48.274;7.794;2023-11-21T12:38:54;10.00;99.90
21722;DHT22;11023;48.274;7.794;2023-11-21T12:41:20;10.00;99.90
21722;DHT22;11023;48.274;7.794;2023-11-21T12:43:47;10.10;99.90
21722;DHT22;11023;48.274;7.794;2023-11-21T12:46:13;10.10;99.90
21722;DHT22;11023;48.274;7.794;2023-11-21T12:48:44;10.10;99.90
21722;DHT22;11023;48.274;7.794;2023-11-21T12:51:11;10.10;99.90
21722;DHT22;11023;48.274;7.794;2023-11-21T12:53:41;10.10;99.90
21722;DHT22;11023;48.274;7.794;2023-11-21T12:56:10;10.20;99.90
21722;DHT22;11023;48.274;7.794;2023-11-21T12:58:37;10.20;99.90
21722;DHT22;11023;48.274;7.794;2023-11-21T13:01:06;10.30;99.90
21722;DHT22;11023;48.274;7.794;2023-11-21T13:03:38;10.30;99.90
21722;DHT22;11023;48.274;7.794;2023-11-21T13:06:06;10.20;99.90
21722;DHT22;11023;48.274;7.794;2023-11-21T13:08:33;10.30;99.90
21722;DHT22;11023;48.274;7.794;2023-11-21T13:10:59;10.30;99.90
21722;DHT22;11023;48.274;7.794;2023-11-21T13:13:28;10.30;99.90
21722;DHT22;11023;48.274;7.794;2023-11-21T13:15:56;10.30;99.90
21722;DHT22;11023;48.274;7.794;2023-11-21T13:18:22;10.30;99.90
21722;DHT22;11023;48.274;7.794;2023-11-21T13:20:49;10.20;99.90
21722;DHT22;11023;48.274;7.794;2023-11-21T13:23:15;10.20;99.90
21722;DHT22;11023;48.274;7.794;2023-11-21T13:25:42;10.30;99.90
21722;DHT22;11023;48.274;7.794;2023-11-21T13:28:11;10.30;99.90
21722;DHT22;11023;48.274;7.794;2023-11-21T13:30:37;10.20;99.90
21722;DHT22;11023;48.274;7.794;2023-11-21T13:33:06;10.20;99.90
21722;DHT22;11023;48.274;7.794;2023-11-21T13:35:34;10.20;99.90
21722;DHT22;11023;48.274;7.794;2023-11-21T13:38:09;10.20;99.90
21722;DHT22;11023;48.274;7.794;2023-11-21T13:40:36;10.20;99.90
21722;DHT22;11023;48.274;7.794;2023-11-21T13:43:11;10.20;99.90
21722;DHT22;11023;48.274;7.794;2023-11-21T13:45:39;10.10;99.90
21722;DHT22;11023;48.274;7.794;2023-11-21T13:48:06;10.10;99.90
21722;DHT22;11023;48.274;7.794;2023-11-21T13:50:36;10.10;99.90
21722;DHT22;11023;48.274;7.794;2023-11-21T13:53:03;10.00;99.90
21722;DHT22;11023;48.274;7.794;2023-11-21T13:55:55;10.10;99.90
21722;DHT22;11023;48.274;7.794;2023-11-21T13:58:23;10.10;99.90
21722;DHT22;11023;48.274;7.794;2023-11-21T14:01:00;10.10;99.90
21722;DHT22;11023;48.274;7.794;2023-11-21T14:03:31;10.10;99.90
21722;DHT22;11023;48.274;7.794;2023-11-21T14:06:10;10.10;99.90
21722;DHT22;11023;48.274;7.794;2023-11-21T14:08:40;10.20;99.90
21722;DHT22;11023;48.274;7.794;2023-11-21T14:11:07;10.20;99.90
21722;DHT22;11023;48.274;7.794;2023-11-21T14:13:33;10.20;99.90
21722;DHT22;11023;48.274;7.794;2023-11-21T14:15:59;10.20;99.90
21722;DHT22;11023;48.274;7.794;2023-11-21T14:18:28;10.20;99.90
21722;DHT22;11023;48.274;7.794;2023-11-21T14:21:06;10.10;99.90
21722;DHT22;11023;48.274;7.794;2023-11-21T14:23:33;10.10;99.90
21722;DHT22;11023;48.274;7.794;2023-11-21T14:26:01;10.10;99.90
21722;DHT22;11023;48.274;7.794;2023-11-21T14:28:27;10.10;99.90
21722;DHT22;11023;48.274;7.794;2023-11-21T14:30:53;10.20;99.90
21722;DHT22;11023;48.274;7.794;2023-11-21T14:33:18;10.10;99.90
21722;DHT22;11023;48.274;7.794;2023-11-21T14:35:44;10.10;99.90
21722;DHT22;11023;48.274;7.794;2023-11-21T14:38:11;10.00;99.90
21722;DHT22;11023;48.274;7.794;2023-11-21T14:40:39;10.00;99.90
21722;DHT22;11023;48.274;7.794;2023-11-21T14:43:04;10.00;99.90
21722;DHT22;11023;48.274;7.794;2023-11-21T14:45:33;9.90;99.90
21722;DHT22;11023;48.274;7.794;2023-11-21T14:48:00;9.90;99.90
21722;DHT22;11023;48.274;7.794;2023-11-21T14:50:42;9.80;99.90
21722;DHT22;11023;48.274;7.794;2023-11-21T14:53:08;9.80;99.90
21722;DHT22;11023;48.274;7.794;2023-11-21T14:55:35;9.70;99.90
21722;DHT22;11023;48.274;7.794;2023-11-21T14:58:17;9.60;99.90
21722;DHT22;11023;48.274;7.794;2023-11-21T15:00:55;9.60;99.90
21722;DHT22;11023;48.274;7.794;2023-11-21T15:03:28;9.60;99.90
21722;DHT22;11023;48.274;7.794;2023-11-21T15:05:58;9.70;99.90
21722;DHT22;11023;48.274;7.794;2023-11-21T15:08:25;9.70;99.90
21722;DHT22;11023;48.274;7.794;2023-11-21T15:10:57;9.70;99.90
21722;DHT22;11023;48.274;7.794;2023-11-21T15:13:23;9.70;99.90
21722;DHT22;11023;48.274;7.794;2023-11-21T15:15:51;9.70;99.90
21722;DHT22;11023;48.274;7.794;2023-11-21T15:18:20;9.70;99.90
21722;DHT22;11023;48.274;7.794;2023-11-21T15:20:46;9.60;99.90
21722;DHT22;11023;48.274;7.794;2023-11-21T15:23:12;9.70;99.90
21722;DHT22;11023;48.274;7.794;2023-11-21T15:25:38;9.60;99.90
21722;DHT22;11023;48.274;7.794;2023-11-21T15:28:04;9.60;99.90
21722;DHT22;11023;48.274;7.794;2023-11-21T15:30:31;9.60;99.90
21722;DHT22;11023;48.274;7.794;2023-11-21T15:32:58;9.50;99.90
21722;DHT22;11023;48.274;7.794;2023-11-21T15:35:23;9.50;99.90
21722;DHT22;11023;48.274;7.794;2023-11-21T15:37:49;9.50;99.90
21722;DHT22;11023;48.274;7.794;2023-11-21T15:40:16;9.60;99.90
21722;DHT22;11023;48.274;7.794;2023-11-21T15:42:43;9.50;99.90
21722;DHT22;11023;48.274;7.794;2023-11-21T15:45:10;9.50;99.90
21722;DHT22;11023;48.274;7.794;2023-11-21T15:47:36;9.60;99.90
21722;DHT22;11023;48.274;7.794;2023-11-21T15:50:01;9.50;99.90
21722;DHT22;11023;48.274;7.794;2023-11-21T15:52:29;9.50;99.90
21722;DHT22;11023;48.274;7.794;2023-11-21T15:54:55;9.50;99.90